Time;durP1;ratioP1;P1;durP2;ratioP2;P2;SDS_P1;SDS_P2;PMS_P1;PMS_P2;Temp;Humidity;BMP_temperature;BMP_pressure;BME280_temperature;BME280_humidity;BME280_pressure;Samples;Min_cycle;Max_cycle;Signal;HPM_P1;HPM_P2
2022/12/16 00:19:52;;;;;;;38.63;13.32;;;4.60;64.20;;;;;;7379667;19;20025;-80
2022/12/16 00:24:57;;;;;;;33.55;14.63;;;4.60;64.50;;;;;;7354472;19;21038;-87
2022/12/16 00:27:25;;;;;;;36.28;15.07;;;4.50;64.20;;;;;;7316853;19;20027;-86
2022/12/16 00:29:54;;;;;;;30.05;13.75;;;4.50;64.30;;;;;;7371035;19;20221;-86
2022/12/16 00:40:13;;;;;;;41.30;14.70;;;4.40;65.30;;;;;;7317597;19;20037;-89
2022/12/16 00:42:42;;;;;;;38.60;15.50;;;4.40;65.20;;;;;;7389084;19;19994;-92
2022/12/16 00:45:11;;;;;;;36.90;16.08;;;4.40;65.10;;;;;;7402900;19;19999;-92
2022/12/16 00:47:40;;;;;;;34.97;15.63;;;4.30;65.00;;;;;;7410583;19;20010;-92
2022/12/16 00:50:11;;;;;;;38.25;15.10;;;4.30;65.00;;;;;;7409539;19;20006;-90
2022/12/16 00:52:40;;;;;;;42.58;15.55;;;4.30;65.40;;;;;;7408687;19;20007;-91
2022/12/16 00:55:12;;;;;;;32.15;14.98;;;4.30;65.50;;;;;;7431879;19;20018;-92
2022/12/16 00:57:42;;;;;;;44.22;17.30;;;4.30;65.50;;;;;;7410656;19;20007;-92
2022/12/16 01:00:13;;;;;;;39.08;16.33;;;4.20;65.30;;;;;;7409730;19;20024;-91
2022/12/16 01:02:43;;;;;;;39.30;15.90;;;4.10;65.20;;;;;;7410941;19;20028;-91
2022/12/16 01:05:13;;;;;;;46.50;17.35;;;4.10;65.20;;;;;;7411868;19;20006;-91
2022/12/16 01:07:42;;;;;;;43.42;18.75;;;4.00;65.40;;;;;;7409802;19;20042;-90
2022/12/16 01:10:14;;;;;;;46.75;17.92;;;4.00;65.60;;;;;;7428857;19;20018;-91
2022/12/16 01:12:43;;;;;;;48.80;18.90;;;4.00;66.00;;;;;;7405959;19;20036;-91
2022/12/16 01:15:15;;;;;;;46.72;18.42;;;4.00;66.10;;;;;;7407433;19;20034;-90
2022/12/16 01:17:45;;;;;;;54.00;20.15;;;4.00;66.10;;;;;;7406922;19;20007;-91
2022/12/16 01:20:14;;;;;;;55.20;20.17;;;3.90;66.10;;;;;;7409208;19;20022;-92
2022/12/16 01:22:44;;;;;;;58.30;19.65;;;3.90;66.80;;;;;;7409881;19;20003;-91
2022/12/16 01:25:16;;;;;;;49.20;19.15;;;3.90;66.00;;;;;;7431804;19;20019;-92
2022/12/16 01:27:45;;;;;;;50.47;19.38;;;3.80;66.00;;;;;;7397191;19;20569;-83
2022/12/16 01:30:15;;;;;;;43.45;17.30;;;3.70;66.00;;;;;;7378260;19;20014;-83
2022/12/16 01:32:43;;;;;;;49.88;18.50;;;3.70;66.20;;;;;;7375684;19;20014;-85
2022/12/16 01:35:12;;;;;;;47.72;17.38;;;3.60;66.30;;;;;;7376547;19;20383;-84
2022/12/16 01:37:41;;;;;;;44.88;18.15;;;3.60;66.50;;;;;;7372904;19;20018;-84
2022/12/16 01:40:18;;;;;;;48.22;17.35;;;3.60;66.60;;;;;;7398832;19;20024;-84
2022/12/16 01:42:49;;;;;;;39.58;15.85;;;3.60;66.50;;;;;;7375695;19;20042;-84
2022/12/16 01:45:32;;;;;;;;;;;3.60;66.50;;;;;;7376093;19;20021;-84
2022/12/16 01:48:04;;;;;;;43.53;14.27;;;3.60;66.80;;;;;;7382851;19;20378;-85
2022/12/16 01:50:33;;;;;;;41.40;15.82;;;3.60;66.80;;;;;;7396826;19;20016;-85
2022/12/16 01:53:06;;;;;;;38.95;15.95;;;3.60;66.90;;;;;;7399098;19;20018;-85
2022/12/16 01:55:39;;;;;;;35.78;14.85;;;3.60;66.70;;;;;;7400327;19;20032;-82
2022/12/16 01:58:14;;;;;;;38.70;14.60;;;3.50;66.50;;;;;;7408479;19;20025;-85
2022/12/16 02:00:43;;;;;;;42.00;16.10;;;3.40;66.60;;;;;;7381832;19;20049;-84
2022/12/16 02:03:12;;;;;;;39.90;15.68;;;3.40;66.80;;;;;;7388397;19;20007;-84
2022/12/16 02:05:43;;;;;;;34.70;15.40;;;3.40;67.10;;;;;;7382919;19;20015;-85
2022/12/16 02:08:15;;;;;;;43.38;15.30;;;3.50;67.20;;;;;;7380312;19;20052;-84
2022/12/16 02:11:06;;;;;;;41.22;15.45;;;3.50;67.20;;;;;;7378078;19;20032;-85
2022/12/16 02:13:50;;;;;;;47.63;14.93;;;3.50;67.10;;;;;;7378925;19;20081;-84
2022/12/16 02:16:25;;;;;;;36.15;14.25;;;3.50;66.80;;;;;;7405705;19;20079;-86
2022/12/16 02:19:04;;;;;;;39.20;15.35;;;3.50;67.00;;;;;;7400044;19;20113;-84
2022/12/16 02:21:47;;;;;;;42.88;14.88;;;3.50;66.90;;;;;;7400136;19;20022;-84
2022/12/16 02:24:48;;;;;;;37.63;14.95;;;3.50;66.90;;;;;;7384408;19;20011;-84
2022/12/16 02:27:42;;;;;;;28.10;12.18;;;3.50;67.20;;;;;;7388092;19;20010;-84
2022/12/16 02:30:40;;;;;;;44.85;15.63;;;3.50;67.40;;;;;;7378845;19;20018;-85
2022/12/16 02:33:36;;;;;;;38.35;14.88;;;3.40;67.20;;;;;;7379428;19;20084;-84
2022/12/16 02:36:14;;;;;;;33.63;13.80;;;3.40;66.90;;;;;;7381119;19;20019;-84
2022/12/16 02:38:50;;;;;;;41.20;14.48;;;3.40;66.80;;;;;;7380578;19;20019;-83
2022/12/16 02:41:25;;;;;;;39.03;15.23;;;3.50;66.90;;;;;;7378957;19;20060;-84
2022/12/16 02:43:57;;;;;;;40.40;15.88;;;3.50;67.10;;;;;;7380265;19;20004;-82
2022/12/16 02:46:31;;;;;;;38.80;15.27;;;3.40;67.20;;;;;;7403120;19;20032;-82
2022/12/16 02:49:07;;;;;;;43.70;15.98;;;3.50;68.30;;;;;;7382012;19;20030;-83
2022/12/16 02:51:38;;;;;;;45.05;15.10;;;3.50;67.40;;;;;;7382002;19;20017;-84
2022/12/16 02:54:09;;;;;;;37.90;14.18;;;3.50;67.80;;;;;;7381541;19;20039;-83
2022/12/16 02:56:51;;;;;;;43.72;14.27;;;3.50;66.60;;;;;;7382995;19;20347;-84
2022/12/16 02:59:26;;;;;;;39.78;15.63;;;3.50;66.30;;;;;;7378818;19;20342;-83
2022/12/16 03:02:04;;;;;;;43.15;16.50;;;3.50;66.30;;;;;;7379809;19;20039;-84
2022/12/16 03:04:39;;;;;;;35.20;15.57;;;3.40;66.60;;;;;;7403770;19;20038;-80
2022/12/16 03:07:10;;;;;;;33.78;13.77;;;3.40;66.80;;;;;;7402343;19;20038;-84
2022/12/16 03:09:41;;;;;;;33.25;14.15;;;3.40;66.90;;;;;;7383491;19;20027;-84
2022/12/16 03:12:14;;;;;;;45.88;15.35;;;3.40;67.10;;;;;;7379143;19;20014;-84
2022/12/16 03:14:45;;;;;;;39.00;14.93;;;3.40;66.80;;;;;;7379779;19;20006;-84
2022/12/16 03:17:18;;;;;;;32.45;13.90;;;3.40;66.60;;;;;;7381865;19;20060;-84
2022/12/16 03:19:51;;;;;;;38.03;15.85;;;3.40;66.50;;;;;;7381085;19;20022;-83
2022/12/16 03:22:24;;;;;;;44.22;16.38;;;3.40;66.80;;;;;;7399860;19;20018;-84
2022/12/16 03:24:53;;;;;;;45.38;16.45;;;3.40;67.00;;;;;;7380843;19;20058;-84
2022/12/16 03:27:27;;;;;;;42.58;16.70;;;3.40;66.90;;;;;;7380400;19;20110;-85
2022/12/16 03:30:00;;;;;;;35.20;15.52;;;3.30;66.40;;;;;;7378385;19;20018;-84
2022/12/16 03:32:38;;;;;;;42.67;16.35;;;3.30;66.60;;;;;;7378334;19;20019;-84
2022/12/16 03:35:15;;;;;;;39.47;15.60;;;3.30;66.70;;;;;;7381844;19;20014;-85
2022/12/16 03:37:46;;;;;;;39.42;15.60;;;3.30;67.40;;;;;;7376950;19;20011;-84
2022/12/16 03:40:15;;;;;;;35.40;15.20;;;3.30;66.80;;;;;;7405611;19;20035;-85
2022/12/16 03:42:44;;;;;;;35.22;15.30;;;3.20;67.00;;;;;;7397102;19;20014;-84
2022/12/16 03:45:17;;;;;;;42.97;16.73;;;3.20;67.00;;;;;;7388622;19;20026;-83
2022/12/16 03:47:54;;;;;;;40.28;16.20;;;3.30;67.20;;;;;;7389584;19;20018;-84
2022/12/16 03:50:27;;;;;;;40.42;16.58;;;3.30;67.00;;;;;;7385813;19;20082;-83
2022/12/16 03:52:56;;;;;;;50.38;17.35;;;3.30;66.80;;;;;;7393898;19;20035;-85
2022/12/16 03:55:25;;;;;;;43.03;17.80;;;3.20;67.20;;;;;;7404848;19;20035;-83
2022/12/16 03:57:54;;;;;;;39.38;16.67;;;3.20;67.50;;;;;;7385700;19;20110;-85
2022/12/16 04:00:23;;;;;;;40.03;17.52;;;3.30;67.40;;;;;;7385450;19;20020;-83
2022/12/16 04:02:54;;;;;;;41.45;17.30;;;3.30;67.00;;;;;;7385897;19;20007;-83
2022/12/16 04:05:23;;;;;;;50.50;19.23;;;3.30;66.90;;;;;;7396410;19;20014;-85
2022/12/16 04:07:52;;;;;;;55.00;21.48;;;3.30;67.00;;;;;;7392993;19;20014;-84
2022/12/16 04:24:17;;;;;;;53.28;19.95;;;3.30;66.80;;;;;;7426314;19;20022;-83
2022/12/16 04:29:22;;;;;;;52.58;18.92;;;3.20;67.00;;;;;;7392735;19;20117;-84
2022/12/16 04:31:51;;;;;;;47.80;17.85;;;3.20;67.20;;;;;;7391205;19;20086;-83
2022/12/16 04:34:24;;;;;;;45.35;17.23;;;3.30;67.40;;;;;;7404768;19;20450;-83
